Terminal Aerodrome Forecast
Issued by NWS

Home | Current Version | Previous Version | Text Only | Print | Product List | Glossary On
Versions: 1 2 3 4 5 6 7 8 9 10 11 12 13 14 15 16
513
FTUS44 KBMX 300520
TAFANB
TAF
KANB 300520Z 3006/3106 VRB03KT P6SM SCT060 SCT250
     FM300900 00000KT 4SM BR SCT250
     FM301400 26007KT P6SM SCT040
     FM301900 21007KT P6SM VCTS BKN050CB=

USA.gov is the U.S. government's official web portal to all federal, state and local government web resources and services.